createdAt,value
2023-03-12T00:00:13.337Z,15.27
2023-03-12T00:02:40.207Z,10.53
2023-03-12T00:05:07.601Z,11.63
2023-03-12T00:07:36.505Z,12.63
2023-03-12T00:10:05.322Z,11.80
2023-03-12T00:12:32.232Z,12.07
2023-03-12T00:14:59.207Z,16.20
2023-03-12T00:17:26.731Z,15.13
2023-03-12T00:19:54.096Z,14.50
2023-03-12T00:22:23.772Z,19.80
2023-03-12T00:24:56.046Z,14.67
2023-03-12T00:27:23.966Z,13.87
2023-03-12T00:29:52.164Z,13.73
2023-03-12T00:32:19.732Z,15.80
2023-03-12T00:34:55.140Z,14.87
2023-03-12T00:37:22.740Z,13.80
2023-03-12T00:39:49.676Z,12.03
2023-03-12T00:42:17.447Z,10.73
2023-03-12T00:44:44.738Z,16.60
2023-03-12T00:47:12.765Z,10.23
2023-03-12T00:49:39.685Z,15.43
2023-03-12T00:52:06.705Z,15.60
2023-03-12T00:54:33.631Z,15.37
2023-03-12T00:57:00.666Z,27.73
2023-03-12T00:59:27.581Z,15.80
2023-03-12T01:01:54.626Z,11.67
2023-03-12T01:04:21.625Z,12.57
2023-03-12T01:06:48.973Z,12.53
2023-03-12T01:09:15.861Z,12.07
2023-03-12T01:11:43.215Z,11.13
2023-03-12T01:14:10.278Z,13.03
2023-03-12T01:16:37.318Z,13.93
2023-03-12T01:19:05.143Z,12.73
2023-03-12T01:21:32.549Z,12.53
2023-03-12T01:23:59.588Z,11.27
2023-03-12T01:26:27.487Z,11.70
2023-03-12T01:28:54.513Z,16.60
2023-03-12T01:31:21.827Z,17.00
2023-03-12T01:33:50.907Z,17.20
2023-03-12T01:36:25.575Z,10.43
2023-03-12T01:38:57.931Z,11.17
2023-03-12T01:41:27.303Z,11.57
2023-03-12T01:43:54.216Z,12.67
2023-03-12T01:46:38.903Z,13.13
2023-03-12T01:49:22.118Z,14.60
2023-03-12T01:52:05.835Z,10.40
2023-03-12T01:54:57.700Z,12.63
2023-03-12T01:57:32.105Z,13.07
2023-03-12T02:00:05.719Z,11.60
2023-03-12T02:02:34.145Z,11.57
2023-03-12T02:05:30.133Z,20.83
2023-03-12T02:07:57.668Z,13.60
2023-03-12T02:10:25.948Z,11.43
2023-03-12T02:12:53.683Z,9.10
2023-03-12T02:15:21.157Z,8.10
2023-03-12T02:17:48.517Z,12.30
2023-03-12T02:20:35.052Z,16.40
2023-03-12T02:23:31.974Z,13.63
2023-03-12T02:26:01.982Z,10.97
2023-03-12T02:28:30.056Z,12.77
2023-03-12T02:31:04.284Z,16.17
2023-03-12T02:33:31.139Z,9.67
2023-03-12T02:35:58.115Z,8.47
2023-03-12T02:38:34.351Z,10.50
2023-03-12T02:41:10.387Z,11.07
2023-03-12T02:43:38.750Z,8.07
2023-03-12T02:46:06.464Z,11.73
2023-03-12T02:48:33.673Z,22.20
2023-03-12T02:51:00.827Z,7.67
2023-03-12T02:53:27.756Z,9.37
2023-03-12T02:55:55.650Z,7.77
2023-03-12T02:58:22.676Z,8.20
2023-03-12T03:00:50.595Z,8.20
2023-03-12T03:03:18.130Z,7.17
2023-03-12T03:05:45.152Z,11.90
2023-03-12T03:08:12.074Z,7.93
2023-03-12T03:10:39.404Z,9.37
2023-03-12T03:13:06.326Z,8.33
2023-03-12T03:15:33.508Z,8.80
2023-03-12T03:18:03.906Z,7.07
2023-03-12T03:20:32.261Z,6.73
2023-03-12T03:22:59.880Z,10.80
2023-03-12T03:25:27.081Z,12.70
2023-03-12T03:27:54.795Z,6.80
2023-03-12T03:30:21.879Z,8.03
2023-03-12T03:32:50.213Z,11.00
2023-03-12T03:35:18.318Z,7.67
2023-03-12T03:37:45.194Z,8.57
2023-03-12T03:40:13.008Z,6.60
2023-03-12T03:42:40.709Z,6.37
2023-03-12T03:45:09.359Z,6.00
2023-03-12T03:47:36.748Z,8.93
2023-03-12T03:50:05.731Z,10.73
2023-03-12T03:52:33.130Z,7.30
2023-03-12T03:55:00.039Z,6.93
2023-03-12T03:57:27.688Z,6.00
2023-03-12T03:59:54.712Z,6.60
2023-03-12T04:02:22.882Z,7.73
2023-03-12T04:04:50.520Z,11.47
2023-03-12T04:07:17.595Z,12.90
2023-03-12T04:09:44.490Z,12.57
2023-03-12T04:12:11.550Z,6.77
2023-03-12T04:14:42.283Z,9.33
2023-03-12T04:17:09.439Z,11.17
2023-03-12T04:19:37.022Z,6.57
2023-03-12T04:22:04.307Z,10.90
2023-03-12T04:24:31.306Z,10.87
2023-03-12T04:26:59.384Z,9.07
2023-03-12T04:29:26.912Z,9.33
2023-03-12T04:31:54.524Z,18.60
2023-03-12T04:34:21.798Z,9.33
2023-03-12T04:36:49.306Z,11.47
2023-03-12T04:39:20.619Z,7.60
2023-03-12T04:41:47.515Z,14.13
2023-03-12T04:44:15.359Z,10.20
2023-03-12T04:46:43.197Z,10.20
2023-03-12T04:49:10.338Z,13.90
2023-03-12T04:51:37.282Z,13.53
2023-03-12T04:54:04.550Z,11.07
2023-03-12T04:56:31.509Z,21.63
2023-03-12T04:58:58.530Z,10.43
2023-03-12T05:01:28.861Z,9.17
2023-03-12T05:03:55.759Z,12.67
2023-03-12T05:06:23.838Z,8.40
2023-03-12T05:08:51.164Z,9.07
2023-03-12T05:11:19.186Z,12.30
2023-03-12T05:13:46.434Z,11.10
2023-03-12T05:16:15.589Z,11.53
2023-03-12T05:18:43.661Z,11.03
2023-03-12T05:21:17.364Z,7.90
2023-03-12T05:23:45.230Z,19.83
2023-03-12T05:26:39.024Z,8.70
2023-03-12T05:29:06.580Z,13.00
2023-03-12T05:31:35.383Z,11.83
2023-03-12T05:34:04.138Z,12.53
2023-03-12T05:36:31.393Z,10.50
2023-03-12T05:38:58.277Z,10.23
2023-03-12T05:41:27.717Z,19.90
2023-03-12T05:43:56.355Z,7.57
2023-03-12T05:46:25.527Z,11.50
2023-03-12T05:48:52.496Z,13.27
2023-03-12T05:51:19.997Z,13.53
2023-03-12T05:53:47.230Z,8.10
2023-03-12T05:56:17.073Z,8.17
2023-03-12T05:58:44.805Z,10.17
2023-03-12T06:01:21.217Z,8.50
2023-03-12T06:03:48.629Z,9.07
2023-03-12T06:06:15.928Z,11.40
2023-03-12T06:08:43.352Z,7.87
2023-03-12T06:11:10.621Z,10.87
2023-03-12T06:13:37.757Z,10.93
2023-03-12T06:16:23.128Z,11.37
2023-03-12T06:18:54.198Z,15.70
2023-03-12T06:21:24.316Z,9.00
2023-03-12T06:23:52.823Z,9.80
2023-03-12T06:26:22.158Z,10.83
2023-03-12T06:28:51.016Z,10.60
2023-03-12T06:31:19.502Z,11.80
2023-03-12T06:33:46.745Z,11.10
2023-03-12T06:36:14.371Z,15.23
2023-03-12T06:38:41.957Z,13.10
2023-03-12T06:41:15.013Z,11.10
2023-03-12T06:43:43.152Z,11.37
2023-03-12T06:46:14.692Z,7.67
2023-03-12T06:48:42.297Z,8.97
2023-03-12T06:51:11.270Z,18.17
2023-03-12T06:53:41.803Z,15.00
2023-03-12T06:56:10.340Z,15.80
2023-03-12T06:58:37.969Z,13.43
2023-03-12T07:01:07.014Z,11.93
2023-03-12T07:03:34.526Z,19.23
2023-03-12T07:06:02.193Z,8.93
2023-03-12T07:08:32.412Z,9.73
2023-03-12T07:11:02.613Z,9.77
2023-03-12T07:13:30.476Z,14.67
2023-03-12T07:16:00.882Z,9.80
2023-03-12T07:18:28.248Z,11.73
2023-03-12T07:20:55.455Z,15.73
2023-03-12T07:23:23.255Z,8.50
2023-03-12T07:25:50.363Z,11.87
2023-03-12T07:28:18.450Z,15.63
2023-03-12T07:30:50.796Z,15.63
2023-03-12T07:33:22.657Z,9.53
2023-03-12T07:35:51.684Z,10.83
2023-03-12T07:38:19.531Z,10.40
2023-03-12T07:40:54.500Z,12.70
2023-03-12T07:43:22.097Z,12.97
2023-03-12T07:45:49.990Z,7.53
2023-03-12T07:48:19.824Z,18.00
2023-03-12T07:50:47.410Z,11.53
2023-03-12T07:53:14.264Z,12.10
2023-03-12T07:55:43.555Z,10.83
2023-03-12T07:58:10.647Z,15.20
2023-03-12T08:00:38.008Z,9.90
2023-03-12T08:03:06.511Z,19.73
2023-03-12T08:05:34.218Z,20.47
2023-03-12T08:08:01.082Z,10.53
2023-03-12T08:10:28.012Z,18.80
2023-03-12T08:12:55.015Z,13.57
2023-03-12T08:15:22.925Z,10.13
2023-03-12T08:17:50.059Z,13.37
2023-03-12T08:20:17.634Z,16.30
2023-03-12T08:22:44.585Z,18.63
2023-03-12T08:25:12.346Z,13.60
2023-03-12T08:27:39.829Z,10.23
2023-03-12T08:30:07.601Z,24.40
2023-03-12T08:32:34.606Z,8.83
2023-03-12T08:35:01.747Z,10.80
2023-03-12T08:37:28.752Z,10.50
2023-03-12T08:39:55.831Z,10.63
2023-03-12T08:42:22.846Z,8.30
2023-03-12T08:44:49.889Z,10.07
2023-03-12T08:47:16.811Z,8.00
2023-03-12T08:49:44.306Z,18.63
2023-03-12T08:52:11.131Z,9.70
2023-03-12T08:54:38.027Z,11.50
2023-03-12T08:57:04.997Z,11.53
2023-03-12T08:59:31.889Z,14.80
2023-03-12T09:01:58.869Z,21.00
2023-03-12T09:04:26.034Z,11.57
2023-03-12T09:06:52.969Z,10.20
2023-03-12T09:09:19.945Z,12.03
2023-03-12T09:11:47.089Z,13.33
2023-03-12T09:15:01.574Z,10.13
2023-03-12T09:17:02.242Z,8.53
2023-03-12T09:19:29.428Z,11.63
2023-03-12T09:21:56.466Z,10.47
2023-03-12T09:24:23.495Z,19.97
2023-03-12T09:26:53.529Z,11.40
2023-03-12T09:29:22.470Z,11.17
2023-03-12T09:31:49.688Z,9.40
2023-03-12T09:34:16.975Z,9.53
2023-03-12T09:36:44.469Z,11.77
2023-03-12T09:39:11.383Z,8.13
2023-03-12T09:41:40.926Z,12.20
2023-03-12T09:44:22.864Z,10.43
2023-03-12T09:46:57.387Z,10.23
2023-03-12T09:49:42.273Z,10.93
2023-03-12T09:52:30.839Z,13.57
2023-03-12T09:55:19.950Z,9.53
2023-03-12T09:57:49.771Z,16.60
2023-03-12T10:00:20.031Z,10.50
2023-03-12T10:03:13.625Z,10.60
2023-03-12T10:05:52.787Z,12.60
2023-03-12T10:08:44.682Z,12.27
2023-03-12T10:11:26.391Z,10.87
2023-03-12T10:14:07.660Z,11.00
2023-03-12T10:16:37.563Z,15.63
2023-03-12T10:19:23.726Z,12.27
2023-03-12T10:22:11.865Z,11.80
2023-03-12T10:25:08.580Z,10.77
2023-03-12T10:27:39.130Z,10.67
2023-03-12T10:30:26.081Z,14.40
2023-03-12T10:33:06.816Z,11.73
2023-03-12T10:35:33.974Z,14.00
2023-03-12T10:38:03.470Z,13.80
2023-03-12T10:40:36.685Z,10.77
2023-03-12T10:43:04.661Z,13.93
2023-03-12T10:45:50.187Z,13.37
2023-03-12T10:48:25.825Z,18.37
2023-03-12T10:51:04.003Z,13.80
2023-03-12T10:53:34.858Z,13.17
2023-03-12T10:56:07.024Z,14.90
2023-03-12T10:58:35.470Z,16.90
2023-03-12T11:01:03.971Z,11.40
2023-03-12T11:03:32.060Z,14.07
2023-03-12T11:06:01.694Z,14.30
2023-03-12T11:08:32.256Z,12.50
2023-03-12T11:11:02.032Z,13.20
2023-03-12T11:13:33.452Z,14.50
2023-03-12T11:16:15.456Z,13.67
2023-03-12T11:19:00.249Z,15.17
2023-03-12T11:21:40.353Z,14.73
2023-03-12T11:24:16.460Z,18.30
2023-03-12T11:26:50.657Z,17.00
2023-03-12T11:29:33.426Z,16.03
2023-03-12T11:32:10.650Z,17.97
2023-03-12T11:34:39.811Z,20.10
2023-03-12T11:37:12.053Z,18.60
2023-03-12T11:39:57.507Z,19.03
2023-03-12T11:42:33.094Z,15.30
2023-03-12T11:45:15.213Z,15.50
2023-03-12T11:48:09.668Z,20.23
2023-03-12T11:50:39.315Z,20.27
2023-03-12T11:53:33.673Z,18.80
2023-03-12T11:56:27.016Z,17.43
2023-03-12T11:59:05.935Z,16.87
2023-03-12T12:01:48.303Z,18.50
2023-03-12T12:04:52.629Z,14.47
2023-03-12T12:07:22.538Z,19.13
2023-03-12T12:09:54.130Z,17.03
2023-03-12T12:12:48.121Z,17.70
2023-03-12T12:15:38.993Z,25.37
2023-03-12T12:18:15.705Z,23.13
2023-03-12T12:20:48.437Z,24.73
2023-03-12T12:23:35.997Z,20.57
2023-03-12T12:26:10.265Z,23.73
2023-03-12T12:29:01.583Z,21.53
2023-03-12T12:31:44.828Z,24.03
2023-03-12T12:34:31.018Z,24.63
2023-03-12T12:37:22.154Z,28.23
2023-03-12T12:39:58.826Z,21.47
2023-03-12T12:42:32.198Z,24.03
2023-03-12T12:45:01.547Z,21.70
2023-03-12T12:47:44.489Z,25.20
2023-03-12T12:50:19.935Z,29.17
2023-03-12T12:52:54.177Z,26.57
2023-03-12T12:55:31.691Z,30.07
2023-03-12T12:58:43.755Z,38.73
2023-03-12T13:01:11.031Z,36.47
2023-03-12T13:03:39.123Z,30.47
2023-03-12T13:06:07.052Z,36.13
2023-03-12T13:08:43.234Z,35.80
2023-03-12T13:11:20.335Z,39.30
2023-03-12T13:14:04.727Z,38.03
2023-03-12T13:16:36.517Z,26.67
2023-03-12T13:19:12.185Z,27.10
2023-03-12T13:21:58.142Z,26.60
2023-03-12T13:24:51.793Z,33.43
2023-03-12T13:27:28.629Z,28.93
2023-03-12T13:29:58.589Z,26.10
2023-03-12T13:32:39.042Z,31.03
2023-03-12T13:35:18.057Z,40.13
2023-03-12T13:37:54.557Z,35.30
2023-03-12T13:40:30.728Z,31.30
2023-03-12T13:43:09.963Z,32.73
2023-03-12T13:45:59.781Z,30.40
2023-03-12T13:48:27.541Z,32.43
2023-03-12T13:50:58.829Z,28.13
2023-03-12T13:53:35.763Z,25.10
2023-03-12T13:56:08.249Z,28.30
2023-03-12T13:59:04.218Z,32.53
2023-03-12T14:01:41.656Z,29.83
2023-03-12T14:04:17.625Z,33.53
2023-03-12T14:07:09.791Z,36.80
2023-03-12T14:10:01.517Z,30.10
2023-03-12T14:12:48.669Z,26.93
2023-03-12T14:15:39.781Z,38.40
2023-03-12T14:18:20.227Z,28.80
2023-03-12T14:20:59.080Z,24.10
2023-03-12T14:23:30.162Z,39.30
2023-03-12T14:26:04.178Z,37.70
2023-03-12T14:28:37.822Z,36.10
2023-03-12T14:31:12.108Z,35.37
2023-03-12T14:34:14.205Z,34.63
2023-03-12T14:37:00.809Z,23.97
2023-03-12T14:39:41.941Z,29.17
2023-03-12T14:42:10.125Z,20.77
2023-03-12T14:44:39.841Z,28.07
2023-03-12T14:47:12.721Z,19.90
2023-03-12T14:49:45.052Z,29.00
2023-03-12T14:52:34.696Z,24.27
2023-03-12T14:55:05.361Z,21.20
2023-03-12T14:57:32.450Z,21.13
2023-03-12T15:00:00.872Z,27.83
2023-03-12T15:02:30.483Z,33.23
2023-03-12T15:05:00.686Z,17.47
2023-03-12T15:07:32.055Z,29.63
2023-03-12T15:09:59.558Z,32.60
2023-03-12T15:12:33.340Z,29.30
2023-03-12T15:15:36.128Z,24.07
2023-03-12T15:18:19.184Z,19.13
2023-03-12T15:20:48.231Z,24.27
2023-03-12T15:23:17.184Z,21.33
2023-03-12T15:25:45.078Z,17.13
2023-03-12T15:28:14.867Z,22.40
2023-03-12T15:30:43.729Z,27.27
2023-03-12T15:33:16.510Z,31.00
2023-03-12T15:36:01.330Z,24.70
2023-03-12T15:38:31.130Z,32.40
2023-03-12T15:41:03.416Z,28.77
2023-03-12T15:43:31.627Z,21.73
2023-03-12T15:46:06.805Z,24.83
2023-03-12T15:48:35.287Z,24.90
2023-03-12T15:51:02.685Z,30.10
2023-03-12T15:53:34.613Z,27.73
2023-03-12T15:56:21.022Z,27.00
2023-03-12T15:58:58.504Z,26.90
2023-03-12T16:01:28.143Z,31.30
2023-03-12T16:03:55.082Z,26.87
2023-03-12T16:06:26.298Z,27.20
2023-03-12T16:08:55.628Z,28.23
2023-03-12T16:11:25.755Z,32.77
2023-03-12T16:14:18.134Z,23.20
2023-03-12T16:16:45.926Z,37.70
2023-03-12T16:19:18.459Z,26.47
2023-03-12T16:21:45.661Z,30.60
2023-03-12T16:24:13.624Z,27.50
2023-03-12T16:26:54.535Z,33.57
2023-03-12T16:29:23.167Z,28.97
2023-03-12T16:31:54.528Z,39.20
2023-03-12T16:34:22.188Z,37.53
2023-03-12T16:36:49.345Z,29.60
2023-03-12T16:39:18.747Z,40.70
2023-03-12T16:41:46.920Z,29.83
2023-03-12T16:44:20.034Z,29.60
2023-03-12T16:46:47.241Z,24.10
2023-03-12T16:49:18.123Z,26.87
2023-03-12T16:51:45.267Z,24.93
2023-03-12T16:54:12.674Z,23.97
2023-03-12T16:56:44.064Z,39.57
2023-03-12T16:59:23.668Z,30.53
2023-03-12T17:01:51.164Z,32.77
2023-03-12T17:04:18.090Z,40.07
2023-03-12T17:06:45.052Z,26.17
2023-03-12T17:09:11.968Z,30.70
2023-03-12T17:11:39.252Z,26.07
2023-03-12T17:14:21.602Z,25.60
2023-03-12T17:16:48.904Z,18.83
2023-03-12T17:19:16.065Z,25.53
2023-03-12T17:21:44.222Z,24.17
2023-03-12T17:24:14.095Z,31.20
2023-03-12T17:26:42.196Z,26.40
2023-03-12T17:29:09.218Z,26.67
2023-03-12T17:31:37.897Z,20.10
2023-03-12T17:34:05.179Z,29.80
2023-03-12T17:36:35.282Z,33.13
2023-03-12T17:39:02.187Z,29.53
2023-03-12T17:41:30.830Z,17.90
2023-03-12T17:44:01.586Z,33.97
2023-03-12T17:46:29.396Z,28.13
2023-03-12T17:48:56.450Z,29.37
2023-03-12T17:51:24.246Z,25.57
2023-03-12T17:53:51.248Z,31.83
2023-03-12T17:56:18.216Z,21.47
2023-03-12T17:58:46.227Z,27.73
2023-03-12T18:01:14.104Z,30.23
2023-03-12T18:03:41.449Z,25.27
2023-03-12T18:06:08.444Z,29.67
2023-03-12T18:08:35.473Z,30.70
2023-03-12T18:11:03.102Z,19.83
2023-03-12T18:13:30.804Z,31.23
2023-03-12T18:15:58.639Z,38.40
2023-03-12T18:18:26.748Z,28.67
2023-03-12T18:20:53.791Z,25.60
2023-03-12T18:23:20.814Z,18.03
2023-03-12T18:25:47.723Z,27.63
2023-03-12T18:28:15.461Z,32.87
2023-03-12T18:30:45.106Z,27.10
2023-03-12T18:33:12.136Z,30.53
2023-03-12T18:35:39.111Z,21.13
2023-03-12T18:38:06.018Z,29.43
2023-03-12T18:40:33.245Z,23.10
2023-03-12T18:43:01.004Z,21.53
2023-03-12T18:45:29.116Z,23.20
2023-03-12T18:47:56.371Z,18.90
2023-03-12T18:50:23.605Z,19.90
2023-03-12T18:52:50.526Z,34.87
2023-03-12T18:55:17.719Z,32.67
2023-03-12T18:57:48.080Z,27.13
2023-03-12T19:00:19.866Z,25.17
2023-03-12T19:02:47.989Z,18.70
2023-03-12T19:05:15.662Z,21.43
2023-03-12T19:07:42.692Z,19.57
2023-03-12T19:10:11.034Z,26.13
2023-03-12T19:12:50.833Z,17.07
2023-03-12T19:15:19.854Z,24.20
2023-03-12T19:17:46.735Z,24.97
2023-03-12T19:20:14.114Z,16.47
2023-03-12T19:22:41.372Z,28.03
2023-03-12T19:25:08.898Z,24.97
2023-03-12T19:27:36.204Z,25.17
2023-03-12T19:30:03.237Z,31.00
2023-03-12T19:32:42.029Z,33.23
2023-03-12T19:35:13.590Z,27.57
2023-03-12T19:37:41.553Z,41.23
2023-03-12T19:40:10.875Z,32.70
2023-03-12T19:42:38.277Z,27.20
2023-03-12T19:45:05.975Z,30.97
2023-03-12T19:47:33.389Z,16.30
2023-03-12T19:50:01.010Z,23.70
2023-03-12T19:52:28.033Z,32.53
2023-03-12T19:55:04.281Z,22.93
2023-03-12T19:57:32.335Z,20.60
2023-03-12T19:59:59.473Z,20.90
2023-03-12T20:02:26.636Z,36.57
2023-03-12T20:04:55.613Z,24.43
2023-03-12T20:07:22.830Z,22.60
2023-03-12T20:09:50.547Z,30.63
2023-03-12T20:12:17.616Z,25.67
2023-03-12T20:14:45.451Z,16.83
2023-03-12T20:17:13.749Z,34.30
2023-03-12T20:19:41.385Z,26.30
2023-03-12T20:22:08.618Z,30.83
2023-03-12T20:24:35.636Z,23.93
2023-03-12T20:27:02.702Z,33.63
2023-03-12T20:29:29.808Z,20.50
2023-03-12T20:31:57.156Z,17.70
2023-03-12T20:34:24.114Z,24.20
2023-03-12T20:36:51.122Z,35.83
2023-03-12T20:39:18.170Z,14.77
2023-03-12T20:41:45.068Z,30.20
2023-03-12T20:44:12.271Z,32.73
2023-03-12T20:46:39.166Z,17.37
2023-03-12T20:49:06.161Z,30.10
2023-03-12T20:51:33.175Z,30.23
2023-03-12T20:54:00.264Z,25.80
2023-03-12T20:56:27.707Z,28.90
2023-03-12T20:58:54.684Z,23.57
2023-03-12T21:01:21.673Z,21.23
2023-03-12T21:03:48.693Z,35.60
2023-03-12T21:06:15.584Z,18.53
2023-03-12T21:08:42.743Z,34.90
2023-03-12T21:11:10.340Z,18.20
2023-03-12T21:13:37.320Z,27.10
2023-03-12T21:16:08.902Z,21.13
2023-03-12T21:18:35.822Z,22.77
2023-03-12T21:21:05.360Z,19.33
2023-03-12T21:23:34.398Z,27.60
2023-03-12T21:26:07.204Z,26.53
2023-03-12T21:28:35.624Z,29.07
2023-03-12T21:31:17.730Z,24.13
2023-03-12T21:33:44.793Z,21.17
2023-03-12T21:36:14.347Z,24.97
2023-03-12T21:38:45.012Z,21.20
2023-03-12T21:41:14.910Z,21.77
2023-03-12T21:43:42.699Z,22.00
2023-03-12T21:46:12.388Z,21.63
2023-03-12T21:48:39.791Z,29.77
2023-03-12T21:51:09.119Z,27.30
2023-03-12T21:53:37.014Z,26.23
2023-03-12T21:56:06.187Z,25.40
2023-03-12T21:58:33.822Z,24.33
2023-03-12T22:01:13.186Z,23.47
2023-03-12T22:03:41.432Z,17.67
2023-03-12T22:06:10.155Z,24.50
2023-03-12T22:08:38.264Z,21.53
2023-03-12T22:11:06.816Z,24.90
2023-03-12T22:13:33.750Z,17.60
2023-03-12T22:16:26.773Z,24.20
2023-03-12T22:18:53.860Z,22.30
2023-03-12T22:21:22.799Z,27.47
2023-03-12T22:23:52.367Z,22.43
2023-03-12T22:26:20.902Z,21.70
2023-03-12T22:28:53.603Z,37.90
2023-03-12T22:31:26.645Z,24.90
2023-03-12T22:33:53.694Z,33.80
2023-03-12T22:36:21.926Z,24.73
2023-03-12T22:38:49.280Z,20.30
2023-03-12T22:41:23.710Z,25.90
2023-03-12T22:43:52.991Z,31.87
2023-03-12T22:46:22.003Z,17.10
2023-03-12T22:48:57.157Z,23.53
2023-03-12T22:51:24.575Z,22.13
2023-03-12T22:53:52.020Z,16.10
2023-03-12T22:56:19.333Z,14.70
2023-03-12T22:58:47.127Z,17.57
2023-03-12T23:01:17.047Z,16.20
2023-03-12T23:03:45.103Z,23.37
2023-03-12T23:06:14.884Z,19.73
2023-03-12T23:08:42.379Z,24.67
2023-03-12T23:11:11.163Z,27.23
2023-03-12T23:13:41.339Z,20.33
2023-03-12T23:16:23.704Z,20.20
2023-03-12T23:18:51.298Z,22.03
2023-03-12T23:21:23.605Z,24.27
2023-03-12T23:23:51.375Z,17.00
2023-03-12T23:26:24.861Z,28.53
2023-03-12T23:28:53.520Z,12.60
2023-03-12T23:31:21.155Z,21.43
2023-03-12T23:33:48.503Z,18.37
2023-03-12T23:36:18.453Z,19.10
2023-03-12T23:38:46.670Z,17.03
2023-03-12T23:41:14.913Z,22.23
2023-03-12T23:43:41.881Z,16.90
2023-03-12T23:46:10.455Z,18.03
2023-03-12T23:48:38.679Z,18.10
2023-03-12T23:51:20.939Z,19.77
2023-03-12T23:53:49.754Z,18.63
2023-03-12T23:56:24.049Z,11.97
2023-03-12T23:58:51.684Z,24.70
